createdAt,value
2022-08-30T00:01:05.196Z,20.10
2022-08-30T00:03:52.062Z,20.10
2022-08-30T00:06:37.825Z,20.00
2022-08-30T00:09:23.954Z,20.00
2022-08-30T00:12:09.777Z,19.90
2022-08-30T00:14:56.425Z,19.90
2022-08-30T00:17:42.014Z,19.80
2022-08-30T00:20:31.670Z,19.70
2022-08-30T00:23:18.972Z,19.70
2022-08-30T00:26:05.760Z,19.70
2022-08-30T00:28:51.666Z,19.80
2022-08-30T00:31:36.837Z,19.70
2022-08-30T00:34:22.518Z,19.60
2022-08-30T00:37:08.145Z,19.40
2022-08-30T00:39:53.668Z,19.50
2022-08-30T00:42:39.491Z,19.40
2022-08-30T00:45:33.581Z,19.40
2022-08-30T00:48:19.613Z,19.40
2022-08-30T00:51:09.291Z,19.30
2022-08-30T00:53:57.030Z,19.20
2022-08-30T00:56:42.987Z,19.30
2022-08-30T00:59:29.640Z,19.30
2022-08-30T01:02:21.665Z,19.30
2022-08-30T01:05:10.773Z,19.20
2022-08-30T01:08:02.173Z,19.20
2022-08-30T01:10:49.635Z,19.20
2022-08-30T01:13:35.897Z,19.20
2022-08-30T01:16:22.266Z,19.10
2022-08-30T01:19:37.216Z,19.10
2022-08-30T01:22:51.154Z,19.10
2022-08-30T01:25:37.711Z,19.00
2022-08-30T01:28:28.380Z,19.00
2022-08-30T01:31:16.404Z,19.00
2022-08-30T01:34:07.312Z,18.90
2022-08-30T01:36:53.231Z,18.90
2022-08-30T01:39:38.839Z,18.80
2022-08-30T01:42:24.423Z,18.60
2022-08-30T01:45:14.055Z,18.60
2022-08-30T01:48:01.658Z,18.60
2022-08-30T01:50:49.582Z,18.50
2022-08-30T01:53:35.275Z,18.40
2022-08-30T01:56:21.966Z,18.40
2022-08-30T01:59:07.643Z,18.30
2022-08-30T02:01:53.763Z,18.30
2022-08-30T02:04:39.272Z,18.20
2022-08-30T02:07:25.516Z,18.30
2022-08-30T02:10:11.559Z,18.20
2022-08-30T02:12:57.151Z,18.30
2022-08-30T02:15:42.723Z,18.30
2022-08-30T02:18:28.151Z,18.20
2022-08-30T02:21:14.945Z,18.10
2022-08-30T02:24:00.140Z,18.10
2022-08-30T02:26:45.636Z,18.00
2022-08-30T02:29:31.254Z,17.90
2022-08-30T02:32:16.677Z,17.90
2022-08-30T02:35:02.368Z,17.80
2022-08-30T02:37:48.077Z,17.80
2022-08-30T02:40:34.514Z,17.90
2022-08-30T02:43:20.228Z,17.90
2022-08-30T02:46:06.115Z,17.90
2022-08-30T02:48:51.601Z,17.90
2022-08-30T02:51:37.231Z,17.80
2022-08-30T02:54:22.725Z,17.70
2022-08-30T02:57:08.820Z,17.70
2022-08-30T03:00:08.446Z,17.70
2022-08-30T03:02:53.984Z,17.70
2022-08-30T03:05:39.767Z,17.70
2022-08-30T03:08:25.449Z,17.70
2022-08-30T03:11:11.005Z,17.80
2022-08-30T03:13:56.588Z,17.80
2022-08-30T03:16:41.910Z,17.70
2022-08-30T03:19:27.561Z,17.80
2022-08-30T03:22:13.503Z,17.70
2022-08-30T03:25:01.313Z,17.70
2022-08-30T03:27:47.724Z,17.70
2022-08-30T03:30:34.068Z,17.70
2022-08-30T03:33:20.159Z,17.60
2022-08-30T03:36:09.017Z,17.60
2022-08-30T03:38:54.769Z,17.60
2022-08-30T03:41:40.139Z,17.60
2022-08-30T03:44:26.593Z,17.50
2022-08-30T03:47:13.227Z,17.60
2022-08-30T03:49:58.818Z,17.50
2022-08-30T03:52:45.799Z,17.50
2022-08-30T03:55:31.388Z,17.50
2022-08-30T03:58:19.174Z,17.50
2022-08-30T04:01:04.677Z,17.40
2022-08-30T04:03:50.256Z,17.50
2022-08-30T04:06:35.673Z,17.50
2022-08-30T04:09:21.057Z,17.50
2022-08-30T04:12:06.870Z,17.50
2022-08-30T04:14:52.533Z,17.50
2022-08-30T04:17:38.175Z,17.50
2022-08-30T04:20:23.874Z,17.40
2022-08-30T04:23:12.326Z,17.40
2022-08-30T04:25:57.774Z,17.50
2022-08-30T04:28:43.265Z,17.40
2022-08-30T04:31:28.943Z,17.30
2022-08-30T04:34:15.098Z,17.30
2022-08-30T04:37:00.487Z,17.20
2022-08-30T04:39:46.561Z,17.20
2022-08-30T04:42:34.218Z,17.10
2022-08-30T04:45:19.413Z,17.10
2022-08-30T04:48:05.017Z,17.10
2022-08-30T04:50:50.852Z,17.10
2022-08-30T04:53:36.848Z,17.20
2022-08-30T04:56:24.767Z,17.20
2022-08-30T04:59:10.465Z,17.20
2022-08-30T05:01:55.815Z,17.30
2022-08-30T05:05:01.233Z,17.30
2022-08-30T05:07:47.246Z,17.30
2022-08-30T05:10:34.113Z,17.30
2022-08-30T05:13:21.291Z,17.20
2022-08-30T05:16:20.678Z,17.20
2022-08-30T05:19:07.847Z,17.30
2022-08-30T05:21:53.137Z,17.30
2022-08-30T05:24:38.682Z,17.40
2022-08-30T05:27:24.363Z,17.50
2022-08-30T05:30:10.736Z,17.60
2022-08-30T05:32:56.259Z,17.70
2022-08-30T05:35:41.687Z,17.80
2022-08-30T05:38:27.126Z,17.90
2022-08-30T05:41:13.077Z,18.00
2022-08-30T05:44:00.432Z,18.00
2022-08-30T05:46:47.505Z,18.10
2022-08-30T05:49:32.965Z,18.30
2022-08-30T05:52:18.611Z,18.40
2022-08-30T05:55:05.736Z,18.60
2022-08-30T05:57:51.082Z,18.60
2022-08-30T06:00:37.968Z,18.80
2022-08-30T06:03:23.548Z,18.90
2022-08-30T06:06:08.951Z,19.10
2022-08-30T06:08:54.771Z,19.20
2022-08-30T06:11:40.743Z,19.20
2022-08-30T06:14:26.466Z,19.30
2022-08-30T06:17:11.875Z,19.30
2022-08-30T06:19:57.507Z,19.40
2022-08-30T06:22:43.008Z,19.40
2022-08-30T06:25:28.505Z,19.40
2022-08-30T06:28:27.664Z,19.40
2022-08-30T06:31:16.271Z,19.50
2022-08-30T06:34:02.411Z,19.60
2022-08-30T06:36:48.149Z,19.80
2022-08-30T06:39:33.742Z,19.90
2022-08-30T06:42:19.134Z,20.10
2022-08-30T06:45:11.054Z,20.20
2022-08-30T06:50:54.759Z,20.50
2022-08-30T06:53:40.158Z,20.40
2022-08-30T06:56:27.589Z,20.40
2022-08-30T06:59:13.651Z,20.50
2022-08-30T07:01:59.519Z,20.70
2022-08-30T07:04:45.161Z,20.70
2022-08-30T07:07:30.703Z,20.60
2022-08-30T07:10:16.280Z,20.60
2022-08-30T07:13:01.554Z,20.70
2022-08-30T07:15:47.180Z,20.80
2022-08-30T07:18:50.654Z,20.80
2022-08-30T07:21:39.080Z,20.90
2022-08-30T07:24:24.903Z,20.80
2022-08-30T07:27:10.144Z,20.90
2022-08-30T07:29:55.874Z,20.90
2022-08-30T07:32:41.563Z,21.00
2022-08-30T07:35:27.585Z,21.00
2022-08-30T07:38:14.750Z,21.20
2022-08-30T07:41:01.309Z,21.40
2022-08-30T07:43:47.229Z,21.40
2022-08-30T07:46:34.566Z,21.70
2022-08-30T07:49:20.311Z,22.00
2022-08-30T07:52:05.798Z,22.20
2022-08-30T07:54:52.866Z,22.30
2022-08-30T07:57:38.789Z,22.30
2022-08-30T08:00:24.183Z,22.50
2022-08-30T08:03:10.614Z,22.80
2022-08-30T08:05:56.402Z,22.90
2022-08-30T08:08:42.650Z,23.00
2022-08-30T08:11:33.295Z,23.10
2022-08-30T08:14:21.385Z,23.10
2022-08-30T08:17:07.028Z,23.40
2022-08-30T08:19:52.523Z,23.40
2022-08-30T08:22:40.025Z,23.40
2022-08-30T08:25:26.712Z,23.70
2022-08-30T08:28:12.540Z,24.00
2022-08-30T08:30:57.972Z,24.30
2022-08-30T08:33:43.588Z,24.50
2022-08-30T08:36:31.132Z,24.80
2022-08-30T08:39:17.279Z,24.80
2022-08-30T08:42:37.833Z,25.00
2022-08-30T08:45:38.853Z,25.40
2022-08-30T08:48:45.680Z,25.30
2022-08-30T08:51:59.010Z,25.30
2022-08-30T08:54:52.418Z,25.30
2022-08-30T08:57:38.985Z,25.20
2022-08-30T09:00:24.997Z,25.30
2022-08-30T09:03:13.199Z,25.50
2022-08-30T09:05:59.236Z,25.50
2022-08-30T09:08:44.781Z,25.60
2022-08-30T09:11:34.101Z,25.70
2022-08-30T09:14:25.415Z,25.70
2022-08-30T09:17:19.001Z,25.70
2022-08-30T09:20:04.821Z,25.60
2022-08-30T09:22:50.477Z,25.40
2022-08-30T09:25:41.235Z,25.50
2022-08-30T09:28:31.536Z,25.50
2022-08-30T09:31:22.131Z,25.70
2022-08-30T09:34:15.902Z,25.60
2022-08-30T09:37:01.658Z,25.50
2022-08-30T09:39:50.146Z,25.40
2022-08-30T09:42:35.547Z,25.40
2022-08-30T09:45:34.777Z,25.30
2022-08-30T09:48:28.389Z,25.30
2022-08-30T09:51:41.423Z,25.50
2022-08-30T09:54:36.395Z,25.50
2022-08-30T09:57:33.916Z,25.60
2022-08-30T10:00:29.015Z,25.60
2022-08-30T10:03:48.720Z,25.40
2022-08-30T10:06:51.619Z,25.70
2022-08-30T10:10:10.515Z,25.90
2022-08-30T10:13:17.737Z,26.10
2022-08-30T10:16:22.746Z,26.50
2022-08-30T10:19:44.032Z,27.00
2022-08-30T10:22:35.658Z,27.20
2022-08-30T10:25:38.814Z,27.40
2022-08-30T10:28:46.776Z,27.60
2022-08-30T10:31:58.389Z,27.90
2022-08-30T10:34:56.390Z,28.50
2022-08-30T10:37:48.350Z,28.70
2022-08-30T10:40:59.774Z,28.90
2022-08-30T10:43:57.574Z,28.80
2022-08-30T10:46:53.101Z,29.30
2022-08-30T10:49:44.817Z,29.50
2022-08-30T10:52:38.592Z,29.70
2022-08-30T10:55:31.027Z,29.60
2022-08-30T10:58:18.505Z,29.40
2022-08-30T11:01:20.550Z,29.30
2022-08-30T11:05:02.429Z,29.20
2022-08-30T11:08:33.178Z,29.00
2022-08-30T11:11:46.401Z,29.00
2022-08-30T11:14:32.181Z,29.10
2022-08-30T11:17:26.586Z,29.20
2022-08-30T11:20:43.777Z,29.20
2022-08-30T11:23:36.270Z,29.20
2022-08-30T11:26:46.890Z,29.30
2022-08-30T11:29:34.884Z,29.40
2022-08-30T11:32:45.608Z,29.70
2022-08-30T11:35:47.292Z,30.10
2022-08-30T11:38:33.876Z,30.40
2022-08-30T11:41:48.050Z,30.60
2022-08-30T11:44:33.889Z,31.10
2022-08-30T11:47:47.161Z,31.70
2022-08-30T11:50:45.283Z,32.00
2022-08-30T11:53:48.228Z,33.30
2022-08-30T11:56:47.566Z,35.40
2022-08-30T11:59:59.402Z,36.60
2022-08-30T12:03:03.639Z,36.20
2022-08-30T12:06:00.112Z,36.30
2022-08-30T12:08:55.208Z,37.50
2022-08-30T12:11:59.556Z,38.80
2022-08-30T12:14:51.532Z,41.40
2022-08-30T12:18:15.769Z,42.30
2022-08-30T12:21:08.540Z,40.70
2022-08-30T12:24:18.633Z,39.70
2022-08-30T12:27:33.869Z,38.80
2022-08-30T12:30:27.744Z,39.40
2022-08-30T12:33:23.004Z,42.50
2022-08-30T12:36:40.522Z,41.00
2022-08-30T12:39:38.817Z,39.00
2022-08-30T12:42:29.862Z,38.40
2022-08-30T12:45:18.547Z,39.10
2022-08-30T12:48:10.937Z,40.70
2022-08-30T12:51:01.184Z,43.10
2022-08-30T12:53:47.094Z,45.30
2022-08-30T12:56:50.395Z,46.00
2022-08-30T12:59:54.044Z,44.40
2022-08-30T13:03:24.054Z,42.80
2022-08-30T13:06:10.127Z,41.20
2022-08-30T13:08:55.982Z,41.30
2022-08-30T13:11:49.537Z,40.80
2022-08-30T13:14:43.538Z,41.00
2022-08-30T13:17:29.530Z,41.20
2022-08-30T13:20:17.722Z,40.10
2022-08-30T13:23:09.725Z,38.70
2022-08-30T13:25:55.165Z,38.00
2022-08-30T13:28:48.929Z,37.60
2022-08-30T13:31:36.881Z,37.50
2022-08-30T13:34:23.452Z,37.50
2022-08-30T13:40:20.640Z,37.10
2022-08-30T13:43:06.279Z,36.50
2022-08-30T13:45:52.075Z,35.80
2022-08-30T13:48:38.312Z,35.30
2022-08-30T13:51:23.627Z,35.00
2022-08-30T13:54:10.666Z,34.60
2022-08-30T13:56:57.531Z,34.30
2022-08-30T13:59:43.204Z,34.00
2022-08-30T14:02:42.866Z,33.90
2022-08-30T14:06:00.503Z,33.60
2022-08-30T14:08:45.149Z,33.20
2022-08-30T14:11:32.850Z,33.30
2022-08-30T14:14:28.532Z,33.20
2022-08-30T14:17:29.807Z,32.80
2022-08-30T14:20:16.834Z,32.40
2022-08-30T14:23:03.692Z,32.50
2022-08-30T14:25:55.844Z,32.40
2022-08-30T14:28:42.210Z,32.40
2022-08-30T14:31:30.031Z,32.50
2022-08-30T14:34:19.136Z,32.40
2022-08-30T14:37:06.769Z,32.40
2022-08-30T14:39:52.926Z,32.40
2022-08-30T14:42:38.300Z,32.40
2022-08-30T14:45:23.695Z,32.30
2022-08-30T14:48:11.404Z,32.10
2022-08-30T14:50:57.990Z,31.70
2022-08-30T14:53:43.937Z,31.60
2022-08-30T14:56:29.736Z,31.60
2022-08-30T14:59:16.274Z,31.40
2022-08-30T15:02:02.379Z,31.30
2022-08-30T15:04:49.520Z,31.30
2022-08-30T15:07:35.454Z,31.00
2022-08-30T15:10:21.699Z,31.00
2022-08-30T15:13:06.860Z,30.80
2022-08-30T15:15:52.569Z,30.60
2022-08-30T15:18:38.961Z,30.40
2022-08-30T15:21:36.551Z,30.30
2022-08-30T15:24:29.555Z,30.20
2022-08-30T15:27:15.609Z,30.10
2022-08-30T15:30:01.096Z,30.00
2022-08-30T15:32:47.337Z,29.90
2022-08-30T15:35:33.868Z,29.80
2022-08-30T15:38:21.938Z,29.60
2022-08-30T15:41:10.446Z,29.60
2022-08-30T15:43:57.450Z,29.60
2022-08-30T15:46:45.236Z,29.50
2022-08-30T15:49:31.207Z,29.50
2022-08-30T15:52:16.575Z,29.40
2022-08-30T15:55:03.192Z,29.30
2022-08-30T15:57:48.413Z,29.20
2022-08-30T16:00:33.981Z,29.20
2022-08-30T16:03:19.961Z,29.10
2022-08-30T16:06:09.790Z,29.00
2022-08-30T16:08:56.125Z,28.90
2022-08-30T16:11:41.876Z,28.90
2022-08-30T16:14:27.707Z,28.80
2022-08-30T16:17:13.434Z,28.80
2022-08-30T16:19:59.113Z,28.70
2022-08-30T16:22:45.842Z,28.60
2022-08-30T16:25:40.928Z,28.60
2022-08-30T16:28:27.009Z,28.20
2022-08-30T16:31:13.887Z,27.60
2022-08-30T16:34:02.217Z,27.30
2022-08-30T16:36:49.236Z,27.10
2022-08-30T16:39:35.063Z,27.30
2022-08-30T16:42:21.427Z,27.50
2022-08-30T16:45:10.395Z,27.60
2022-08-30T16:47:56.580Z,27.40
2022-08-30T16:50:44.543Z,27.50
2022-08-30T16:53:30.099Z,27.50
2022-08-30T16:56:21.446Z,27.30
2022-08-30T16:59:11.506Z,27.10
2022-08-30T17:01:57.213Z,27.30
2022-08-30T17:04:42.849Z,27.50
2022-08-30T17:07:29.391Z,27.40
2022-08-30T17:10:15.369Z,27.50
2022-08-30T17:13:05.205Z,27.40
2022-08-30T17:15:51.641Z,27.40
2022-08-30T17:18:38.006Z,27.20
2022-08-30T17:21:23.309Z,27.20
2022-08-30T17:24:08.899Z,27.20
2022-08-30T17:26:54.924Z,27.00
2022-08-30T17:29:40.279Z,27.10
2022-08-30T17:32:25.697Z,27.00
2022-08-30T17:35:11.946Z,27.00
2022-08-30T17:37:57.391Z,26.90
2022-08-30T17:40:43.631Z,26.80
2022-08-30T17:43:29.495Z,26.70
2022-08-30T17:46:20.547Z,26.70
2022-08-30T17:49:10.494Z,26.60
2022-08-30T17:51:57.602Z,26.50
2022-08-30T17:54:43.463Z,26.50
2022-08-30T17:57:29.594Z,26.50
2022-08-30T18:00:15.655Z,26.40
2022-08-30T18:03:01.559Z,26.40
2022-08-30T18:05:47.955Z,26.20
2022-08-30T18:08:34.042Z,25.90
2022-08-30T18:11:20.052Z,25.60
2022-08-30T18:14:07.800Z,25.50
2022-08-30T18:16:56.326Z,25.60
2022-08-30T18:19:46.078Z,25.70
2022-08-30T18:22:32.046Z,25.70
2022-08-30T18:25:17.638Z,25.50
2022-08-30T18:28:04.352Z,25.50
2022-08-30T18:30:50.136Z,25.50
2022-08-30T18:33:36.276Z,25.50
2022-08-30T18:36:23.828Z,25.60
2022-08-30T18:39:09.303Z,25.50
2022-08-30T18:41:56.846Z,25.50
2022-08-30T18:44:43.497Z,25.40
2022-08-30T18:47:30.140Z,25.30
2022-08-30T18:50:15.269Z,25.30
2022-08-30T18:53:00.841Z,25.10
2022-08-30T18:55:46.283Z,25.10
2022-08-30T18:58:31.782Z,25.00
2022-08-30T19:01:22.201Z,25.00
2022-08-30T19:04:08.563Z,25.00
2022-08-30T19:06:54.789Z,24.90
2022-08-30T19:09:41.109Z,24.80
2022-08-30T19:12:28.255Z,24.70
2022-08-30T19:15:14.447Z,24.70
2022-08-30T19:18:01.665Z,24.60
2022-08-30T19:20:48.789Z,24.60
2022-08-30T19:23:36.438Z,24.50
2022-08-30T19:26:22.290Z,24.40
2022-08-30T19:29:07.743Z,24.30
2022-08-30T19:31:53.391Z,24.30
2022-08-30T19:34:39.338Z,24.10
2022-08-30T19:37:25.627Z,23.90
2022-08-30T19:40:14.513Z,24.10
2022-08-30T19:43:00.268Z,24.10
2022-08-30T19:45:51.967Z,24.10
2022-08-30T19:48:42.861Z,23.70
2022-08-30T19:51:28.619Z,23.70
2022-08-30T19:54:15.083Z,22.90
2022-08-30T19:57:00.804Z,22.60
2022-08-30T19:59:46.616Z,22.10
2022-08-30T20:02:33.913Z,21.70
2022-08-30T20:05:21.446Z,21.30
2022-08-30T20:08:07.441Z,21.00
2022-08-30T20:10:53.103Z,21.10
2022-08-30T20:13:39.808Z,21.20
2022-08-30T20:16:33.009Z,21.00
2022-08-30T20:19:27.433Z,21.40
2022-08-30T20:22:15.211Z,21.90
2022-08-30T20:25:00.772Z,22.20
2022-08-30T20:27:49.811Z,21.40
2022-08-30T20:30:35.326Z,21.00
2022-08-30T20:33:23.401Z,21.00
2022-08-30T20:36:11.188Z,21.00
2022-08-30T20:39:01.324Z,21.20
2022-08-30T20:41:47.840Z,21.00
2022-08-30T20:44:34.601Z,21.20
2022-08-30T20:47:21.452Z,21.00
2022-08-30T20:50:16.711Z,21.30
2022-08-30T20:53:02.735Z,21.70
2022-08-30T20:55:48.790Z,21.90
2022-08-30T20:58:34.269Z,21.90
2022-08-30T21:01:19.823Z,22.00
2022-08-30T21:04:06.523Z,22.00
2022-08-30T21:06:52.221Z,22.00
2022-08-30T21:09:37.896Z,21.90
2022-08-30T21:12:24.233Z,21.90
2022-08-30T21:15:27.337Z,21.80
2022-08-30T21:18:15.962Z,21.90
2022-08-30T21:21:22.176Z,21.80
2022-08-30T21:24:09.924Z,21.70
2022-08-30T21:26:55.743Z,21.70
2022-08-30T21:29:41.461Z,21.50
2022-08-30T21:32:27.662Z,21.40
2022-08-30T21:35:32.096Z,21.30
2022-08-30T21:38:17.918Z,21.20
2022-08-30T21:41:03.633Z,21.20
2022-08-30T21:43:49.370Z,21.10
2022-08-30T21:46:36.088Z,20.90
2022-08-30T21:49:23.529Z,20.90
2022-08-30T21:52:09.105Z,20.90
2022-08-30T21:54:54.601Z,21.00
2022-08-30T21:57:40.091Z,20.90
2022-08-30T22:00:25.855Z,20.90
2022-08-30T22:03:11.409Z,20.90
2022-08-30T22:05:56.869Z,20.90
2022-08-30T22:08:45.261Z,20.90
2022-08-30T22:11:31.895Z,20.80
2022-08-30T22:14:18.911Z,20.70
2022-08-30T22:17:04.551Z,20.60
2022-08-30T22:19:50.079Z,20.60
2022-08-30T22:22:35.761Z,20.70
2022-08-30T22:25:21.556Z,20.60
2022-08-30T22:28:07.134Z,20.60
2022-08-30T22:30:53.421Z,20.60
2022-08-30T22:33:38.828Z,20.60
2022-08-30T22:36:32.789Z,20.60
2022-08-30T22:39:18.831Z,20.50
2022-08-30T22:42:04.268Z,20.50
2022-08-30T22:44:50.422Z,20.50
2022-08-30T22:47:36.096Z,20.50
2022-08-30T22:50:22.563Z,20.50
2022-08-30T22:53:07.964Z,20.50
2022-08-30T22:55:53.383Z,20.50
2022-08-30T22:58:38.882Z,20.50
2022-08-30T23:01:29.536Z,20.40
2022-08-30T23:04:15.309Z,20.40
2022-08-30T23:07:00.707Z,20.40
2022-08-30T23:09:46.263Z,20.40
2022-08-30T23:12:32.581Z,20.30
2022-08-30T23:15:18.265Z,20.20
2022-08-30T23:18:05.405Z,20.30
2022-08-30T23:20:51.160Z,20.30
2022-08-30T23:23:55.313Z,20.20
2022-08-30T23:27:00.449Z,20.10
2022-08-30T23:30:05.024Z,20.10
2022-08-30T23:33:09.153Z,20.00
2022-08-30T23:36:13.132Z,20.00
2022-08-30T23:39:17.845Z,19.90
2022-08-30T23:42:21.913Z,20.00
2022-08-30T23:45:26.515Z,20.00
2022-08-30T23:48:30.499Z,20.00
2022-08-30T23:51:34.533Z,20.00
2022-08-30T23:54:38.694Z,20.00
2022-08-30T23:57:43.314Z,20.10
